FW3713 Weather Reports


time (UTC)temp
C
wind
direction
speed
KPH
gust
KPH
rain 1hr
cm
rain 24hr
cm
rain mn
cm
humidity
%
barometer
mb
20210518193843 12 42 3.2 6.4 0.03 0.03 0.03 70 1026.5
20210518193337 12 58 1.6 6.4 0.00 0.00 0.00 69 1026.6
20210518192831 12 73 1.6 4.8 0.00 0.00 0.00 68 1026.6
20210518192325 12 73 0.0 4.8 0.00 0.00 0.00 67 1026.6
20210518191818 12 202 0.0 1.6 0.00 0.00 0.00 68 1026.8
20210518191313 12 202 1.6 1.6 0.00 0.00 0.00 67 1026.8
20210518190807 12 202 1.6 3.2 0.00 0.00 0.00 66 1026.9
20210518190300 12 202 0.0 3.2 0.00 0.00 0.00 67 1026.9
20210518185754 12 237 0.0 3.2 0.00 0.00 0.00 67 1026.9
20210518185250 12 239 1.6 4.8 0.00 0.00 0.00 66 1026.9
20210518184743 12 175 3.2 9.7 0.00 0.00 0.00 65 1027.1
20210518184237 12 277 3.2 9.7 0.00 0.00 0.00 64 1027.1
20210518183731 12 314 4.8 11.3 0.00 0.00 0.00 64 1027.2
20210518183224 12 318 6.4 14.5 0.00 0.00 0.00 62 1027.3
20210518182719 12 270 9.7 17.7 0.00 0.00 0.00 59 1027.3
20210518182213 12 249 11.3 22.5 0.00 0.00 0.00 58 1027.3
20210518181708 13 258 9.7 22.5 0.00 0.00 0.00 57 1027.3
20210518181201 13 274 9.7 17.7 0.00 0.00 0.00 56 1027.3
20210518180654 13 258 11.3 22.5 0.00 0.00 0.00 55 1027.2
20210518180149 13 279 12.9 22.5 0.00 0.00 0.00 53 1027.0
20210518175643 14 301 12.9 27.4 0.00 0.00 0.00 52 1027.0
20210518175137 14 315 11.3 27.4 0.00 0.00 0.00 54 1027.0
20210518174631 15 318 11.3 24.1 0.00 0.00 0.00 51 1026.9
20210518174124 15 311 12.9 24.1 0.00 0.00 0.00 48 1026.9
20210518173620 16 296 12.9 27.4 0.00 0.00 0.00 45 1026.9
20210518173113 16 307 8.0 27.4 0.00 0.00 0.00 42 1026.6
20210518172607 17 312 3.2 12.9 0.00 0.00 0.00 39 1026.3
20210518172101 17 328 3.2 6.4 0.00 0.00 0.00 39 1026.2
20210518171554 17 282 3.2 6.4 0.00 0.00 0.00 38 1026.2
20210518171050 17 276 3.2 6.4 0.00 0.00 0.00 38 1026.1
20210518170544 17 331 3.2 6.4 0.00 0.00 0.00 38 1025.9
20210518170035 17 245 4.8 11.3 0.00 0.00 0.00 36 1025.9
20210518165531 17 288 4.8 11.3 0.00 0.00 0.00 36 1025.9
20210518165025 18 255 3.2 11.3 0.00 0.00 0.00 35 1025.8
20210518164518 18 273 4.8 11.3 0.00 0.00 0.00 34 1025.7
20210518164013 18 281 4.8 11.3 0.00 0.00 0.00 33 1025.5
20210518163507 18 270 3.2 8.0 0.00 0.00 0.00 34 1025.4
20210518163001 18 257 1.6 4.8 0.00 0.00 0.00 36 1025.4
20210518162454 18 271 1.6 4.8 0.00 0.00 0.00 36 1025.4
20210518161949 18 180 1.6 4.8 0.00 0.00 0.00 36 1025.2
20210518161443 17 179 1.6 4.8 0.00 0.00 0.00 38 1025.2
20210518160937 17 111 0.0 3.2 0.00 0.00 0.00 40 1025.1
20210518160433 16 108 1.6 4.8 0.00 0.00 0.00 41 1025.1
20210518155931 16 108 1.6 4.8 0.00 0.00 0.00 42 1025.1
20210518155432 16 41 1.6 6.4 0.00 0.00 0.00 41 1025.4
20210518154933 16 52 1.6 6.4 0.00 0.00 0.00 43 1025.5
20210518154431 15 52 1.6 6.4 0.00 0.00 0.00 45 1025.5
20210518153930 15 63 1.6 4.8 0.00 0.00 0.00 46 1025.6
20210518153429 15 63 1.6 3.2 0.00 0.00 0.00 46 1025.7
20210518152930 15 61 1.6 4.8 0.00 0.00 0.00 47 1025.7
20210518152431 15 54 1.6 6.4 0.00 0.00 0.00 49 1025.7
20210518151928 15 71 0.0 6.4 0.00 0.00 0.00 51 1025.7
20210518151427 14 310 1.6 3.2 0.00 0.00 0.00 52 1025.7
20210518150929 14 309 1.6 4.8 0.00 0.00 0.00 53 1025.8
20210518150427 14 293 1.6 4.8 0.00 0.00 0.00 53 1025.8
20210518145929 14 301 1.6 4.8 0.00 0.00 0.00 54 1025.7
20210518145423 14 314 3.2 8.0 0.00 0.00 0.00 54 1025.5
20210518144923 14 293 4.8 11.3 0.00 0.00 0.00 54 1025.8
20210518144423 14 350 3.2 11.3 0.00 0.00 0.00 52 1025.9
20210518143925 14 293 1.6 6.4 0.00 0.00 0.00 52 1025.7
20210518143424 14 196 0.0 3.2 0.00 0.00 0.00 54 1025.4
20210518142923 13 127 0.0 4.8 0.00 0.00 0.00 53 1025.2
20210518142424 13 127 1.6 8.0 0.00 0.00 0.00 54 1024.9
20210518141924 13 150 1.6 8.0 0.00 0.00 0.00 54 1025.0
20210518141424 13 150 1.6 4.8 0.00 0.00 0.00 55 1025.1
20210518140923 13 260 0.0 3.2 0.00 0.00 0.00 57 1025.4
20210518140424 13 276 0.0 1.6 0.00 0.00 0.00 56 1025.5
20210518135925 12 276 1.6 4.8 0.00 0.00 0.00 56 1025.5
20210518135424 12 276 3.2 9.7 0.00 0.00 0.00 56 1025.5
20210518134923 12 276 3.2 9.7 0.00 0.00 0.00 56 1025.6
20210518134425 12 287 3.2 6.4 0.00 0.00 0.00 57 1025.5
20210518133921 12 322 3.2 6.4 0.00 0.00 0.00 56 1025.4
20210518133422 12 281 3.2 6.4 0.00 0.00 0.00 57 1025.5
20210518132921 12 266 1.6 8.0 0.00 0.00 0.00 58 1025.4
20210518132420 12 167 1.6 8.0 0.00 0.00 0.00 58 1024.8
20210518131914 12 335 1.6 3.2 0.00 0.00 0.00 58 1025.6
20210518131410 12 340 1.6 8.0 0.00 0.00 0.00 58 1025.4
20210518130904 12 336 3.2 8.0 0.00 0.00 0.00 58 1025.4
20210518130358 12 6 3.2 8.0 0.00 0.00 0.00 59 1025.4
20210518125852 12 316 3.2 8.0 0.00 0.00 0.00 59 1025.5
20210518125346 12 56 3.2 9.7 0.00 0.00 0.00 59 1025.2
20210518124840 12 313 4.8 9.7 0.00 0.00 0.00 59 1025.4
20210518124335 12 345 6.4 12.9 0.00 0.00 0.00 60 1025.2
20210518123828 12 306 4.8 12.9 0.00 0.00 0.00 60 1025.2
20210518123322 11 341 3.2 4.8 0.00 0.00 0.00 60 1024.7
20210518122815 11 96 3.2 6.4 0.00 0.00 0.00 61 1024.4
20210518122310 11 188 1.6 6.4 0.00 0.00 0.00 62 1024.5
20210518121804 11 205 0.0 3.2 0.00 0.00 0.00 61 1024.5
20210518121256 11 245 0.0 1.6 0.00 0.00 0.00 61 1024.7
20210518120750 11 264 0.0 1.6 0.00 0.00 0.00 61 1024.7
20210518120243 11 264 1.6 4.8 0.00 0.00 0.00 61 1024.7
20210518115738 11 264 1.6 4.8 0.00 0.00 0.00 60 1024.7
20210518115232 11 145 0.0 1.6 0.00 0.00 0.00 60 1024.7
20210518114726 11 145 0.0 3.2 0.00 0.00 0.00 60 1024.5
20210518114220 11 145 1.6 3.2 0.00 0.00 0.00 61 1024.5
20210518113715 11 145 0.0 1.6 0.00 0.00 0.00 61 1024.5
20210518113209 11 145 0.0 1.6 0.00 0.00 0.00 61 1024.3
20210518112702 11 145 0.0 1.6 0.00 0.00 0.00 61 1024.4
20210518112156 11 145 0.0 3.2 0.00 0.00 0.00 62 1024.3
20210518111650 11 145 1.6 4.8 0.00 0.00 0.00 62 1024.3
20210518111144 11 145 1.6 4.8 0.00 0.00 0.00 62 1024.2
20210518110638 11 146 0.0 3.2 0.00 0.00 0.00 62 1024.3
20210518110131 11 146 0.0 3.2 0.00 0.00 0.00 62 1024.4
20210518105626 11 146 0.0 3.2 0.00 0.00 0.00 62 1024.4
20210518105120 11 146 0.0 1.6 0.00 0.00 0.00 62 1024.5
20210518104614 11 146 1.6 4.8 0.00 0.00 0.00 62 1024.5
20210518104108 11 146 1.6 4.8 0.00 0.00 0.00 61 1024.7
20210518103602 11 146 3.2 4.8 0.00 0.00 0.00 61 1024.7
20210518103055 11 102 1.6 4.8 0.00 0.00 0.00 61 1024.7
20210518102549 11 63 0.0 3.2 0.00 0.00 0.00 62 1024.7
20210518102046 11 26 0.0 0.0 0.00 0.00 0.00 61 1024.8
20210518101538 11 26 0.0 3.2 0.00 0.00 0.00 61 1025.0
20210518101032 11 26 0.0 3.2 0.00 0.00 0.00 61 1025.0
20210518100526 11 355 0.0 3.2 0.00 0.00 0.00 61 1024.9
20210518100020 11 355 0.0 3.2 0.00 0.00 0.00 61 1024.9
20210518095514 11 355 1.6 3.2 0.00 0.00 0.00 61 1024.8
20210518095008 11 331 1.6 6.4 0.00 0.00 0.00 61 1024.8
20210518094501 11 331 3.2 8.0 0.00 0.00 0.00 60 1024.9
20210518093954 11 326 3.2 8.0 0.00 0.00 0.00 61 1025.0
20210518093450 11 110 1.6 4.8 0.00 0.00 0.00 62 1024.8
20210518092945 11 110 0.0 1.6 0.00 0.00 0.00 62 1024.7
20210518092438 11 110 0.0 0.0 0.00 0.00 0.00 61 1024.7
20210518091932 11 110 0.0 1.6 0.00 0.00 0.00 61 1024.7
20210518091425 11 110 0.0 1.6 0.00 0.00 0.00 61 1024.8
20210518090920 11 110 0.0 1.6 0.00 0.00 0.00 60 1024.8
20210518090414 11 110 0.0 0.0 0.00 0.00 0.00 59 1025.0
20210518085908 11 110 0.0 0.0 0.00 0.00 0.00 59 1025.0
20210518085401 11 110 0.0 1.6 0.00 0.00 0.00 59 1025.0
20210518084855 11 110 0.0 1.6 0.00 0.00 0.00 59 1025.1
20210518084350 12 110 0.0 1.6 0.00 0.00 0.00 59 1025.2
20210518083844 12 110 0.0 1.6 0.00 0.00 0.00 58 1025.2
20210518083339 12 110 0.0 3.2 0.00 0.00 0.00 58 1025.4
20210518082832 12 110 0.0 3.2 0.00 0.00 0.00 58 1025.5
20210518082327 12 110 1.6 3.2 0.00 0.00 0.00 58 1025.5
20210518081820 12 229 1.6 3.2 0.00 0.00 0.00 58 1025.6
20210518081315 12 229 0.0 1.6 0.00 0.00 0.00 58 1025.8
20210518080808 12 229 1.6 3.2 0.00 0.00 0.00 57 1025.7
20210518080301 12 229 1.6 3.2 0.00 0.00 0.00 58 1025.7
20210518075756 12 229 0.0 3.2 0.00 0.00 0.00 57 1025.7
20210518075251 12 229 0.0 3.2 0.00 0.00 0.00 57 1025.7
20210518074744 12 229 0.0 3.2 0.00 0.00 0.00 57 1025.8
20210518074238 12 229 0.0 1.6 0.00 0.00 0.00 56 1025.7
20210518073732 12 229 0.0 3.2 0.00 0.00 0.00 56 1025.9
20210518073226 12 229 0.0 3.2 0.00 0.00 0.00 56 1025.9
20210518072721 12 341 1.6 3.2 0.00 0.00 0.00 56 1025.8
20210518072214 12 335 1.6 6.4 0.00 0.00 0.00 56 1025.9
20210518071706 12 333 3.2 6.4 0.00 0.00 0.00 56 1026.1
20210518071202 12 334 1.6 8.0 0.00 0.00 0.00 56 1026.2
20210518070656 12 322 1.6 8.0 0.00 0.00 0.00 56 1026.2
20210518070149 12 322 3.2 8.0 0.00 0.00 0.00 56 1026.2
20210518065645 12 320 4.8 8.0 0.00 0.00 0.00 56 1026.1
20210518065139 12 322 4.8 8.0 0.00 0.00 0.00 56 1025.9
20210518064630 12 326 3.2 6.4 0.00 0.00 0.00 55 1026.1
20210518064126 12 321 3.2 6.4 0.00 0.00 0.00 55 1026.1
20210518063621 13 324 1.6 6.4 0.00 0.00 0.00 54 1026.2
20210518063118 13 285 0.0 3.2 0.00 0.00 0.00 54 1025.9
20210518062618 13 285 1.6 3.2 0.00 0.00 0.00 54 1026.3
20210518062116 13 285 1.6 4.8 0.00 0.00 0.00 53 1026.3
20210518061613 13 285 3.2 9.7 0.00 0.00 0.00 53 1026.2
20210518061110 13 285 3.2 9.7 0.00 0.00 0.00 53 1026.2
20210518060610 13 273 3.2 6.4 0.00 0.00 0.00 53 1026.1
20210518060110 13 283 3.2 8.0 0.00 0.00 0.00 52 1026.1
20210518055607 13 324 3.2 8.0 0.00 0.00 0.00 52 1026.4
20210518055108 13 328 1.6 6.4 0.00 0.00 0.00 52 1026.2
20210518054607 13 331 3.2 8.0 0.00 0.00 0.00 52 1026.1
20210518054109 13 331 4.8 9.7 0.00 0.00 0.00 52 1026.2
20210518053603 13 291 3.2 9.7 0.00 0.00 0.00 53 1026.1
20210518053105 13 289 1.6 8.0 0.00 0.00 0.00 54 1026.2
20210518052604 13 66 0.0 1.6 0.00 0.00 0.00 53 1025.8
20210518052103 13 66 0.0 1.6 0.00 0.00 0.00 53 1025.8
20210518051604 13 66 0.0 3.2 0.00 0.00 0.00 52 1025.7
20210518051104 13 66 0.0 3.2 0.00 0.00 0.00 52 1025.7
20210518050603 13 68 0.0 1.6 0.00 0.00 0.00 52 1025.8
20210518050105 13 68 0.0 0.0 0.00 0.00 0.00 51 1025.7
20210518045605 13 68 0.0 1.6 0.00 0.00 0.00 51 1025.7
20210518045103 13 68 0.0 1.6 0.00 0.00 0.00 51 1025.7
20210518044604 13 68 0.0 3.2 0.00 0.00 0.00 51 1025.7
20210518044103 13 68 0.0 3.2 0.00 0.00 0.00 50 1025.5
20210518043605 13 68 0.0 3.2 0.00 0.00 0.00 50 1025.5
20210518043103 14 68 0.0 3.2 0.00 0.00 0.00 50 1025.6
20210518042559 14 68 1.6 4.8 0.00 0.00 0.00 50 1025.8
20210518042101 14 68 1.6 9.7 0.00 0.00 0.00 50 1025.7
20210518041559 14 60 3.2 9.7 0.00 0.00 0.00 50 1025.6
20210518041059 14 13 1.6 4.8 0.00 0.00 0.00 50 1025.6
20210518040559 14 341 3.2 6.4 0.00 0.00 0.00 50 1025.5
20210518040100 14 4 3.2 8.0 0.00 0.00 0.00 49 1025.5
20210518035559 14 7 4.8 8.0 0.00 0.00 0.00 49 1025.5
20210518035059 14 13 4.8 8.0 0.00 0.00 0.00 48 1025.4
20210518034601 15 4 4.8 8.0 0.00 0.00 0.00 48 1025.4
20210518034054 15 322 6.4 17.7 0.00 0.00 0.00 47 1025.2
20210518033546 15 21 4.8 17.7 0.00 0.00 0.00 47 1025.1
20210518033042 15 319 4.8 12.9 0.00 0.00 0.00 46 1025.2
20210518032536 15 315 4.8 12.9 0.00 0.00 0.00 46 1025.2
20210518032028 15 329 4.8 8.0 0.00 0.00 0.00 46 1025.2
20210518031522 15 331 4.8 12.9 0.00 0.00 0.00 46 1025.1
20210518031018 15 331 4.8 12.9 0.00 0.00 0.00 46 1025.1
20210518030510 15 324 4.8 9.7 0.00 0.00 0.00 46 1025.1
20210518030004 15 314 4.8 9.7 0.00 0.00 0.00 45 1025.1
20210518025500 15 260 4.8 9.7 0.00 0.00 0.00 45 1025.1
20210518024952 15 291 3.2 8.0 0.00 0.00 0.00 45 1025.1
20210518024448 15 296 3.2 8.0 0.00 0.00 0.00 44 1025.0
20210518023941 16 305 3.2 8.0 0.00 0.00 0.00 44 1024.8
20210518023437 16 311 3.2 6.4 0.00 0.00 0.00 43 1024.7
20210518022930 16 331 3.2 9.7 0.00 0.00 0.00 42 1024.4
20210518022424 16 303 4.8 9.7 0.00 0.00 0.00 42 1024.3
20210518021918 16 299 4.8 8.0 0.00 0.00 0.00 42 1024.1
20210518021410 16 302 4.8 8.0 0.00 0.00 0.00 42 1023.8
20210518020906 16 318 6.4 14.5 0.00 0.00 0.00 40 1023.8
20210518020358 16 336 6.4 14.5 0.00 0.00 0.00 40 1023.5
20210518015852 16 322 4.8 9.7 0.00 0.00 0.00 40 1023.4
20210518015346 16 321 4.8 9.7 0.00 0.00 0.00 40 1023.4
20210518014840 16 10 6.4 12.9 0.00 0.00 0.00 40 1023.3
20210518014336 16 350 6.4 12.9 0.00 0.00 0.00 40 1023.3
20210518013830 16 335 8.0 16.1 0.00 0.00 0.00 40 1023.2
20210518013324 16 332 8.0 16.1 0.00 0.00 0.00 41 1023.0
20210518012819 17 328 8.0 16.1 0.00 0.00 0.00 41 1023.0
20210518012312 17 331 6.4 16.1 0.00 0.00 0.00 41 1023.0
20210518011805 16 350 6.4 14.5 0.00 0.00 0.00 40 1023.0
20210518011259 16 12 9.7 19.3 0.00 0.00 0.00 41 1022.7
20210518010752 16 10 11.3 20.9 0.00 0.00 0.00 42 1022.8
20210518010248 16 299 12.9 24.1 0.00 0.00 0.00 44 1022.8
20210518005742 17 350 11.3 24.1 0.00 0.00 0.00 43 1022.7
20210518005235 17 5 11.3 24.1 0.00 0.00 0.00 43 1022.8
20210518004729 17 337 9.7 24.1 0.00 0.00 0.00 41 1022.6
20210518004224 18 8 9.7 19.3 0.00 0.00 0.00 39 1022.5
20210518003716 18 25 11.3 20.9 0.00 0.00 0.00 38 1022.6
20210518003212 18 10 9.7 20.9 0.00 0.00 0.00 36 1022.3
20210518002704 19 273 9.7 17.7 0.00 0.00 0.00 34 1022.2
20210518002201 19 350 11.3 22.5 0.00 0.00 0.00 33 1022.3
20210518001657 19 331 11.3 22.5 0.00 0.00 0.00 32 1022.5
20210518001157 20 293 8.0 16.1 0.00 0.00 0.00 31 1022.6
20210518000657 20 320 8.0 14.5 0.00 0.00 0.00 29 1022.6
20210518000156 20 350 6.4 14.5 0.00 0.00 0.00 30 1022.6
20210517235655 20 7 8.0 16.1 0.00 0.00 0.00 31 1022.8
20210517235153 20 339 11.3 17.7 0.00 0.00 0.00 33 1022.7
20210517234654 20 355 9.7 17.7 0.00 0.00 0.00 32 1022.3
20210517234153 19 0 9.7 17.7 0.00 0.00 0.00 34 1022.0
20210517233652 19 22 12.9 24.1 0.00 0.00 0.00 35 1022.1
20210517233150 19 16 12.9 27.4 0.00 0.00 0.00 35 1021.9
20210517232651 19 25 14.5 29.0 0.00 0.00 0.00 34 1021.9
20210517232151 20 27 14.5 29.0 0.00 0.00 0.00 33 1021.6
20210517231652 20 13 14.5 25.7 0.00 0.00 0.00 32 1021.8
20210517231149 20 327 12.9 25.7 0.00 0.00 0.00 31 1022.0
20210517230649 20 0 11.3 25.7 0.00 0.00 0.00 30 1022.0
20210517230149 21 311 11.3 24.1 0.00 0.00 0.00 29 1021.8
20210517225648 21 15 9.7 22.5 0.00 0.00 0.00 28 1021.6
20210517225148 21 10 9.7 20.9 0.00 0.00 0.00 28 1021.5
20210517224642 21 331 9.7 20.9 0.00 0.00 0.00 28 1021.6
20210517224138 21 14 9.7 22.5 0.00 0.00 0.00 29 1021.6
20210517223630 21 12 11.3 22.5 0.00 0.00 0.00 28 1021.8
20210517223128 21 350 11.3 19.3 0.00 0.00 0.00 28 1021.9
20210517222628 21 13 11.3 19.3 0.00 0.00 0.00 28 1021.8
20210517222128 21 16 11.3 20.9 0.00 0.00 0.00 27 1021.9
20210517221626 21 13 11.3 22.5 0.00 0.00 0.00 28 1022.1
20210517221127 21 328 9.7 22.5 0.00 0.00 0.00 28 1022.0
20210517220627 21 12 9.7 20.9 0.00 0.00 0.00 29 1022.1
20210517220128 21 8 9.7 20.9 0.00 0.00 0.00 29 1022.1
20210517215627 21 5 11.3 19.3 0.00 0.00 0.00 29 1022.1
20210517215127 21 24 12.9 20.9 0.00 0.00 0.00 28 1022.0
20210517214626 22 337 12.9 22.5 0.00 0.00 0.00 28 1022.1
20210517214129 23 4 11.3 22.5 0.00 0.00 0.00 25 1022.0
20210517213623 25 339 9.7 17.7 0.00 0.00 0.00 24 1022.2
20210517213124 25 331 8.0 16.1 0.00 0.00 0.00 15 1022.2
20210517212623 25 288 9.7 22.5 0.00 0.00 0.00 14 1022.1
20210517212123 26 254 6.4 22.5 0.00 0.00 0.00 14 1022.0
20210517211623 26 258 4.8 16.1 0.00 0.00 0.00 14 1022.0
20210517211122 26 195 6.4 16.1 0.00 0.00 0.00 15 1022.0
20210517210622 26 130 6.4 16.1 0.00 0.00 0.00 13 1022.3
20210517210123 26 184 6.4 14.5 0.00 0.00 0.00 18 1022.3
20210517205622 26 185 6.4 20.9 0.00 0.00 0.00 18 1022.5
20210517205122 25 129 6.4 20.9 0.00 0.00 0.00 18 1022.6
20210517204622 25 167 6.4 17.7 0.00 0.00 0.00 18 1022.6
20210517204121 25 183 8.0 19.3 0.00 0.00 0.00 20 1022.7
20210517203620 25 123 9.7 22.5 0.00 0.00 0.00 20 1022.6
20210517203121 24 181 11.3 24.1 0.00 0.00 0.00 22 1022.7
20210517202620 23 135 11.3 27.4 0.00 0.00 0.00 22 1022.7
20210517202122 23 126 11.3 32.2 0.00 0.00 0.00 20 1022.8
20210517201620 23 93 12.9 32.2 0.00 0.00 0.00 18 1022.8
20210517201131 23 114 12.9 29.0 0.00 0.00 0.00 21 1022.9
20210517200616 23 142 16.1 33.8 0.00 0.00 0.00 21 1022.9
20210517200109 23 140 14.5 33.8 0.00 0.00 0.00 20 1023.0
20210517195604 24 118 11.3 29.0 0.00 0.00 0.00 21 1023.2
20210517195057 25 118 9.7 25.7 0.00 0.00 0.00 24 1022.8
20210517194552 25 151 9.7 25.7 0.00 0.00 0.00 23 1023.0
20210517194047 25 204 8.0 20.9 0.00 0.00 0.00 23 1022.9